Time;durP1;ratioP1;P1;durP2;ratioP2;P2;SDS_P1;SDS_P2;PMS_P1;PMS_P2;Temp;Humidity;BMP_temperature;BMP_pressure;BME280_temperature;BME280_humidity;BME280_pressure;Samples;Min_cycle;Max_cycle;Signal;HPM_P1;HPM_P2
2022/11/29 00:01:19;;;;;;;38.90;19.70;;;4.40;99.90;;;;;;4956387;29;20218;-81
2022/11/29 00:03:45;;;;;;;40.30;19.87;;;4.40;99.90;;;;;;4956039;29;20263;-83
2022/11/29 00:06:17;;;;;;;39.20;19.43;;;4.40;99.90;;;;;;4939007;29;20178;-82
2022/11/29 00:08:43;;;;;;;39.73;19.63;;;4.40;99.90;;;;;;4957865;29;20172;-77
2022/11/29 00:11:12;;;;;;;41.37;19.93;;;4.30;99.90;;;;;;4958005;29;20247;-78
2022/11/29 00:13:39;;;;;;;41.37;20.17;;;4.40;99.90;;;;;;4958212;29;20199;-79
2022/11/29 00:16:10;;;;;;;36.40;18.27;;;4.40;99.90;;;;;;4959172;29;20178;-83
2022/11/29 00:18:36;;;;;;;39.37;18.20;;;4.40;99.90;;;;;;4961496;29;20160;-84
2022/11/29 00:21:07;;;;;;;32.90;17.73;;;4.40;99.90;;;;;;4959812;29;20203;-81
2022/11/29 00:23:33;;;;;;;38.33;19.50;;;4.40;99.90;;;;;;4955780;29;20171;-81
2022/11/29 00:26:18;;;;;;;41.73;18.33;;;4.40;99.90;;;;;;4955652;29;20638;-82
2022/11/29 00:28:43;;;;;;;36.57;17.80;;;4.40;99.90;;;;;;4955530;29;20171;-82
2022/11/29 00:31:32;;;;;;;41.67;20.33;;;4.30;99.90;;;;;;4955280;29;20238;-81
2022/11/29 00:34:00;;;;;;;38.33;19.23;;;4.30;99.90;;;;;;4955316;28;20152;-82
2022/11/29 00:36:27;;;;;;;42.03;20.20;;;4.40;99.90;;;;;;4955697;29;20359;-84
2022/11/29 00:38:55;;;;;;;34.70;17.80;;;4.40;99.90;;;;;;4956845;29;20267;-83
2022/11/29 00:41:21;;;;;;;40.60;20.17;;;4.40;99.90;;;;;;4957294;29;20188;-82
2022/11/29 00:43:47;;;;;;;43.40;19.90;;;4.40;99.90;;;;;;4940346;29;20183;-83
2022/11/29 00:46:13;;;;;;;44.47;19.63;;;4.40;99.90;;;;;;4958784;29;20551;-83
2022/11/29 00:48:38;;;;;;;40.43;18.37;;;4.40;99.90;;;;;;4957387;29;20182;-85
2022/11/29 00:51:05;;;;;;;43.13;20.43;;;4.30;99.90;;;;;;4950567;29;20207;-83
2022/11/29 00:53:33;;;;;;;43.33;19.50;;;4.40;99.90;;;;;;4968303;29;20275;-82
2022/11/29 00:55:59;;;;;;;44.43;20.07;;;4.40;99.90;;;;;;4971285;29;20177;-83
2022/11/29 00:58:25;;;;;;;48.23;20.37;;;4.40;99.90;;;;;;4957334;29;20195;-82
2022/11/29 01:00:54;;;;;;;41.67;18.43;;;4.40;99.90;;;;;;4955234;29;20223;-82
2022/11/29 01:03:20;;;;;;;47.07;20.10;;;4.30;99.90;;;;;;4937741;29;20172;-79
2022/11/29 01:05:46;;;;;;;46.37;20.30;;;4.20;99.90;;;;;;4955014;29;20175;-83
2022/11/29 01:08:13;;;;;;;45.10;19.53;;;4.20;99.90;;;;;;4937749;29;20656;-83
2022/11/29 01:10:39;;;;;;;41.17;19.40;;;4.20;99.90;;;;;;4962665;29;20203;-81
2022/11/29 01:13:06;;;;;;;46.80;20.30;;;4.10;99.90;;;;;;4960681;29;20187;-81
2022/11/29 01:15:32;;;;;;;47.07;20.33;;;4.10;99.90;;;;;;4955789;29;20177;-83
2022/11/29 01:17:58;;;;;;;47.67;20.37;;;4.10;99.90;;;;;;4955489;29;20271;-83
2022/11/29 01:20:23;;;;;;;46.77;21.33;;;4.20;99.90;;;;;;4957806;29;20210;-82
2022/11/29 01:22:50;;;;;;;44.30;20.80;;;4.20;99.90;;;;;;4964989;29;20175;-83
2022/11/29 01:25:16;;;;;;;48.50;20.70;;;4.10;99.90;;;;;;4955572;29;20187;-81
2022/11/29 01:27:42;;;;;;;48.17;20.40;;;4.20;99.90;;;;;;4954971;29;20187;-80
2022/11/29 01:30:09;;;;;;;40.90;18.93;;;4.40;99.90;;;;;;4955469;29;20350;-81
2022/11/29 01:32:35;;;;;;;45.30;21.70;;;4.30;99.90;;;;;;4938081;29;20295;-82
2022/11/29 01:35:02;;;;;;;48.20;21.27;;;4.40;99.90;;;;;;4955133;29;20182;-80
2022/11/29 01:37:28;;;;;;;44.07;20.63;;;4.30;99.90;;;;;;4954952;29;20227;-82
2022/11/29 01:39:54;;;;;;;43.93;20.57;;;4.30;99.90;;;;;;4955229;29;20202;-84
2022/11/29 01:42:20;;;;;;;50.90;20.67;;;4.30;99.90;;;;;;4954961;29;20585;-80
2022/11/29 01:44:48;;;;;;;44.80;20.00;;;4.30;99.90;;;;;;4955203;28;20592;-78
2022/11/29 01:47:16;;;;;;;48.40;20.80;;;4.20;99.90;;;;;;4958796;29;20175;-79
2022/11/29 01:49:46;;;;;;;43.63;20.03;;;4.20;99.90;;;;;;4958172;29;20266;-79
2022/11/29 01:52:24;;;;;;;50.73;20.27;;;4.20;99.90;;;;;;4958519;29;20203;-79
2022/11/29 01:54:55;;;;;;;43.33;19.77;;;4.20;99.90;;;;;;4958211;29;20486;-78
2022/11/29 01:57:21;;;;;;;42.00;18.70;;;4.20;99.90;;;;;;4959329;29;20168;-82
2022/11/29 01:59:50;;;;;;;48.07;21.17;;;4.20;99.90;;;;;;4959947;29;20239;-81
2022/11/29 02:02:58;;;;;;;44.00;19.70;;;4.20;99.90;;;;;;4959777;29;20178;-82
2022/11/29 02:05:24;;;;;;;43.63;19.57;;;4.20;99.90;;;;;;4958778;29;20195;-83
2022/11/29 02:07:52;;;;;;;47.50;21.00;;;4.20;99.90;;;;;;4958174;29;20179;-82
2022/11/29 02:10:19;;;;;;;45.77;19.20;;;4.20;99.90;;;;;;4958263;29;20218;-82
2022/11/29 02:12:59;;;;;;;42.63;18.63;;;4.20;99.90;;;;;;4958173;29;20652;-83
2022/11/29 02:16:03;;;;;;;49.40;20.17;;;4.20;99.90;;;;;;4958066;29;20224;-83
2022/11/29 02:18:56;;;;;;;45.97;19.47;;;4.20;99.90;;;;;;4959322;29;20246;-83
2022/11/29 02:21:47;;;;;;;44.17;18.90;;;4.20;99.90;;;;;;4958159;29;20222;-81
2022/11/29 02:25:24;;;;;;;43.17;18.87;;;4.20;99.90;;;;;;4958201;29;20608;-83
2022/11/29 02:27:58;;;;;;;46.90;19.13;;;4.20;99.90;;;;;;4880993;29;20245;-83
2022/11/29 02:30:45;;;;;;;50.43;18.93;;;4.30;99.90;;;;;;4866242;29;20713;-83
2022/11/29 02:33:10;;;;;;;44.50;18.53;;;4.30;99.90;;;;;;4934536;29;20188;-83
2022/11/29 02:35:45;;;;;;;40.83;19.20;;;4.30;99.90;;;;;;4944154;29;20230;-83
2022/11/29 02:38:23;;;;;;;44.50;19.50;;;4.30;99.90;;;;;;4971553;29;20167;-83
2022/11/29 02:40:54;;;;;;;43.93;19.77;;;4.20;99.90;;;;;;4947472;29;20697;-79
2022/11/29 02:44:08;;;;;;;46.17;20.03;;;4.30;99.90;;;;;;4963491;29;20629;-82
2022/11/29 02:46:55;;;;;;;52.87;20.73;;;4.20;99.90;;;;;;4886652;29;20207;-83
2022/11/29 02:49:30;;;;;;;41.60;18.07;;;4.20;99.90;;;;;;4889355;29;20685;-79
2022/11/29 02:52:03;;;;;;;48.97;20.47;;;4.20;99.90;;;;;;4880291;29;20265;-82
2022/11/29 02:54:41;;;;;;;40.37;19.73;;;4.20;99.90;;;;;;4864686;29;20169;-81
2022/11/29 02:57:30;;;;;;;42.60;19.13;;;4.20;99.90;;;;;;4879378;29;20205;-80
2022/11/29 03:00:14;;;;;;;46.23;19.27;;;4.20;99.90;;;;;;4864035;29;20234;-83
2022/11/29 03:02:56;;;;;;;43.40;19.03;;;4.20;99.90;;;;;;4879958;29;20182;-82
2022/11/29 03:05:52;;;;;;;38.00;18.07;;;4.10;99.90;;;;;;4879743;29;20159;-80
2022/11/29 03:08:51;;;;;;;44.13;19.00;;;4.20;99.90;;;;;;4864186;29;20209;-83
2022/11/29 03:11:16;;;;;;;41.53;18.33;;;4.20;99.90;;;;;;4879584;29;20734;-82
2022/11/29 03:13:47;;;;;;;41.43;18.57;;;4.30;99.90;;;;;;4882763;29;20174;-83
2022/11/29 03:16:34;;;;;;;44.73;19.87;;;4.20;99.90;;;;;;4879685;29;20639;-84
2022/11/29 03:19:58;;;;;;;47.30;19.43;;;4.20;99.90;;;;;;4879215;29;20182;-82
2022/11/29 03:22:48;;;;;;;51.10;20.30;;;4.20;99.90;;;;;;4893238;29;20197;-82
2022/11/29 03:25:38;;;;;;;47.83;20.50;;;4.20;99.90;;;;;;4956877;29;20174;-81
2022/11/29 03:28:14;;;;;;;47.77;20.80;;;4.20;99.90;;;;;;4956689;29;20611;-80
2022/11/29 03:30:46;;;;;;;48.73;20.83;;;4.20;99.90;;;;;;4956785;29;20655;-80
2022/11/29 03:33:15;;;;;;;45.40;19.70;;;4.20;99.90;;;;;;4940065;29;20303;-77
2022/11/29 03:36:02;;;;;;;44.27;18.27;;;4.20;99.90;;;;;;4956599;29;20178;-78
2022/11/29 03:38:45;;;;;;;45.20;20.40;;;4.20;99.90;;;;;;4956639;29;20168;-78
2022/11/29 03:41:14;;;;;;;47.70;19.53;;;4.20;99.90;;;;;;4939128;29;20187;-80
2022/11/29 03:44:01;;;;;;;44.10;19.67;;;4.20;99.90;;;;;;4956111;29;20203;-77
2022/11/29 03:46:45;;;;;;;40.67;18.07;;;4.10;99.90;;;;;;4956288;29;20305;-81
2022/11/29 03:49:40;;;;;;;42.50;19.63;;;4.00;99.90;;;;;;4957157;29;20178;-83
2022/11/29 03:52:32;;;;;;;41.20;19.67;;;4.00;99.90;;;;;;4943150;29;20291;-83
2022/11/29 03:55:20;;;;;;;47.43;19.20;;;4.10;99.90;;;;;;4956138;29;20165;-84
2022/11/29 03:58:00;;;;;;;44.10;19.20;;;4.10;99.90;;;;;;4956384;29;20170;-82
2022/11/29 04:00:59;;;;;;;48.57;20.13;;;4.00;99.90;;;;;;4922982;29;20291;-83
2022/11/29 04:03:40;;;;;;;45.07;19.63;;;4.00;99.90;;;;;;4917585;29;20284;-79
2022/11/29 04:06:26;;;;;;;41.20;19.60;;;4.10;99.90;;;;;;4930139;29;20178;-83
2022/11/29 04:09:07;;;;;;;45.40;19.43;;;4.20;99.90;;;;;;4923368;29;20165;-83
2022/11/29 04:12:02;;;;;;;44.77;20.53;;;4.20;99.90;;;;;;4920432;29;20367;-85
2022/11/29 04:14:31;;;;;;;43.87;19.03;;;4.10;99.90;;;;;;4920150;29;20169;-84
2022/11/29 04:17:02;;;;;;;41.13;18.70;;;4.10;99.90;;;;;;4921793;29;20180;-81
2022/11/29 04:19:45;;;;;;;46.10;19.70;;;4.10;99.90;;;;;;4924629;29;20177;-83
2022/11/29 04:22:37;;;;;;;43.93;19.27;;;4.10;99.90;;;;;;4923571;29;20619;-83
2022/11/29 04:25:48;;;;;;;45.30;20.63;;;4.10;99.90;;;;;;4933988;29;20252;-80
2022/11/29 04:28:40;;;;;;;45.77;19.60;;;4.00;99.90;;;;;;4921036;29;20179;-83
2022/11/29 04:31:14;;;;;;;37.00;17.23;;;4.10;99.90;;;;;;4901475;29;20232;-82
2022/11/29 04:33:56;;;;;;;36.77;18.53;;;4.00;99.90;;;;;;4919616;29;20181;-79
2022/11/29 04:36:39;;;;;;;39.50;18.30;;;4.00;99.90;;;;;;4919789;29;20219;-81
2022/11/29 04:39:18;;;;;;;40.53;16.90;;;4.00;99.90;;;;;;4924559;29;20252;-81
2022/11/29 04:42:15;;;;;;;36.73;16.67;;;4.10;99.90;;;;;;4920550;29;20194;-81
2022/11/29 04:45:08;;;;;;;41.03;17.50;;;4.10;99.90;;;;;;4919954;29;20266;-82
2022/11/29 04:47:50;;;;;;;37.00;17.43;;;4.10;99.90;;;;;;4917963;29;20641;-83
2022/11/29 04:50:24;;;;;;;41.43;17.73;;;4.10;99.90;;;;;;4918084;29;20211;-83
2022/11/29 04:52:50;;;;;;;38.57;17.53;;;4.00;99.90;;;;;;4918287;29;20164;-82
2022/11/29 04:55:48;;;;;;;38.30;17.87;;;4.10;99.90;;;;;;4927426;29;20187;-82
2022/11/29 04:58:26;;;;;;;40.73;18.03;;;4.10;99.90;;;;;;4918149;29;20216;-81
2022/11/29 05:01:05;;;;;;;40.20;17.23;;;4.10;99.90;;;;;;4916031;29;20246;-80
2022/11/29 05:04:00;;;;;;;40.73;17.77;;;4.20;99.90;;;;;;4916817;29;20181;-83
2022/11/29 05:07:05;;;;;;;38.20;17.23;;;4.20;99.90;;;;;;4917331;29;20168;-83
2022/11/29 05:09:54;;;;;;;35.07;17.77;;;4.20;99.90;;;;;;4842347;29;20203;-83
2022/11/29 05:12:47;;;;;;;39.57;17.83;;;4.20;99.90;;;;;;4840546;29;20628;-82
2022/11/29 05:15:48;;;;;;;43.63;18.67;;;4.20;99.90;;;;;;4840744;29;20167;-81
2022/11/29 05:18:44;;;;;;;40.50;18.07;;;4.20;99.90;;;;;;4840496;29;20326;-79
2022/11/29 05:21:30;;;;;;;38.10;18.00;;;4.20;99.90;;;;;;4843460;29;20175;-81
2022/11/29 05:24:29;;;;;;;38.30;17.87;;;4.20;99.90;;;;;;4844879;29;20227;-81
2022/11/29 05:27:07;;;;;;;38.27;18.33;;;4.30;99.90;;;;;;4831300;29;20286;-83
2022/11/29 05:30:01;;;;;;;33.30;17.47;;;4.20;99.90;;;;;;4844329;29;20179;-82
2022/11/29 05:32:45;;;;;;;43.70;19.17;;;4.20;99.90;;;;;;4846352;29;20203;-82
2022/11/29 05:35:41;;;;;;;44.00;18.73;;;4.20;99.90;;;;;;4845352;29;20232;-83
2022/11/29 05:38:44;;;;;;;45.03;19.30;;;4.20;99.90;;;;;;4833743;29;20219;-79
2022/11/29 05:41:30;;;;;;;41.17;18.30;;;4.20;99.90;;;;;;4845261;29;20304;-81
2022/11/29 05:44:12;;;;;;;46.00;20.27;;;4.20;99.90;;;;;;4856491;29;20524;-82
2022/11/29 05:46:57;;;;;;;39.00;18.73;;;4.20;99.90;;;;;;4920991;29;20163;-82
2022/11/29 05:49:47;;;;;;;32.67;16.50;;;4.20;99.90;;;;;;4920982;29;20161;-83
2022/11/29 05:52:41;;;;;;;34.40;16.03;;;4.10;99.90;;;;;;4921303;29;20182;-82
2022/11/29 05:55:09;;;;;;;33.07;16.90;;;4.10;99.90;;;;;;4921460;29;20183;-83
2022/11/29 05:57:49;;;;;;;37.13;17.07;;;4.00;99.90;;;;;;4920585;29;20205;-83
2022/11/29 06:00:18;;;;;;;38.40;18.17;;;4.00;99.90;;;;;;4943326;29;20576;-83
2022/11/29 06:02:52;;;;;;;35.17;17.67;;;4.10;99.90;;;;;;4960511;29;20185;-82
2022/11/29 06:05:33;;;;;;;40.87;18.07;;;4.00;99.90;;;;;;4961230;29;20196;-84
2022/11/29 06:08:13;;;;;;;40.03;18.17;;;4.10;99.90;;;;;;4962335;29;20163;-82
2022/11/29 06:11:11;;;;;;;42.63;19.43;;;4.10;99.90;;;;;;4966664;29;20623;-83
2022/11/29 06:14:04;;;;;;;42.00;18.93;;;4.10;99.90;;;;;;4972264;29;20628;-82
2022/11/29 06:16:46;;;;;;;38.37;17.90;;;4.10;99.90;;;;;;4959918;29;20176;-83
2022/11/29 06:19:33;;;;;;;45.17;19.20;;;4.00;99.90;;;;;;4960108;29;20200;-85
2022/11/29 06:22:20;;;;;;;38.73;17.60;;;4.00;99.90;;;;;;4960215;29;20171;-82
2022/11/29 06:25:19;;;;;;;41.67;17.57;;;3.90;99.90;;;;;;4959837;29;20250;-81
2022/11/29 06:28:01;;;;;;;41.47;18.50;;;3.80;99.90;;;;;;4958558;29;20159;-82
2022/11/29 06:30:41;;;;;;;38.60;18.73;;;3.70;99.90;;;;;;4941051;29;20202;-80
2022/11/29 06:33:13;;;;;;;45.03;20.77;;;3.80;99.90;;;;;;4939720;29;20177;-83
2022/11/29 06:36:03;;;;;;;40.60;20.00;;;3.90;99.90;;;;;;4958557;29;20181;-83
2022/11/29 06:38:30;;;;;;;37.70;17.83;;;3.90;99.90;;;;;;4942753;29;20212;-84
2022/11/29 06:40:59;;;;;;;40.60;18.07;;;3.90;99.90;;;;;;4966254;29;20253;-82
2022/11/29 06:43:25;;;;;;;38.73;19.50;;;4.10;99.90;;;;;;4960866;29;20173;-83
2022/11/29 06:45:58;;;;;;;40.73;17.30;;;4.20;99.90;;;;;;4958055;29;20175;-82
2022/11/29 06:48:38;;;;;;;43.43;19.20;;;4.20;99.90;;;;;;4941012;29;20597;-82
2022/11/29 06:51:41;;;;;;;37.37;17.60;;;4.20;99.90;;;;;;4958529;29;20527;-83
2022/11/29 06:54:30;;;;;;;32.23;16.80;;;4.00;99.90;;;;;;4957655;29;20546;-79
2022/11/29 06:57:13;;;;;;;36.07;16.87;;;4.10;99.90;;;;;;4939973;29;20313;-81
2022/11/29 07:00:01;;;;;;;43.47;18.73;;;4.20;99.90;;;;;;4962999;29;20297;-81
2022/11/29 07:02:34;;;;;;;34.73;15.60;;;4.10;99.90;;;;;;4958020;29;20313;-77
2022/11/29 07:05:20;;;;;;;36.50;16.77;;;4.10;99.90;;;;;;4958076;29;20152;-84
2022/11/29 07:07:47;;;;;;;31.60;16.03;;;4.10;99.90;;;;;;4958600;29;20179;-82
2022/11/29 07:10:16;;;;;;;31.90;15.97;;;4.10;99.90;;;;;;4957880;29;20223;-82
2022/11/29 07:12:44;;;;;;;39.57;16.93;;;4.20;99.90;;;;;;4958323;29;20199;-81
2022/11/29 07:15:19;;;;;;;34.37;16.83;;;4.20;99.90;;;;;;4957016;29;20274;-80
2022/11/29 07:18:17;;;;;;;43.30;17.60;;;4.30;99.90;;;;;;4957441;29;20177;-82
2022/11/29 07:21:18;;;;;;;37.17;16.80;;;4.30;99.90;;;;;;4957301;29;20170;-82
2022/11/29 07:24:12;;;;;;;31.00;14.97;;;4.40;99.90;;;;;;4956897;29;20163;-81
2022/11/29 07:26:56;;;;;;;35.60;16.87;;;4.40;99.90;;;;;;4956898;29;20210;-83
2022/11/29 07:29:37;;;;;;;30.43;15.60;;;4.40;99.90;;;;;;4956796;29;20171;-84
2022/11/29 07:32:18;;;;;;;35.87;15.97;;;4.40;99.90;;;;;;4956907;29;20176;-83
2022/11/29 07:35:02;;;;;;;32.47;15.83;;;4.30;99.90;;;;;;4957165;29;20635;-85
2022/11/29 07:37:56;;;;;;;26.43;15.00;;;4.30;99.90;;;;;;4957014;29;20174;-84
2022/11/29 07:40:38;;;;;;;29.80;15.43;;;4.40;99.90;;;;;;4936451;29;20191;-82
2022/11/29 07:43:06;;;;;;;33.70;14.90;;;4.40;99.90;;;;;;4956076;28;20268;-82
2022/11/29 07:45:36;;;;;;;33.33;16.33;;;4.40;99.90;;;;;;4956647;29;20175;-84
2022/11/29 07:48:03;;;;;;;31.97;16.87;;;4.40;99.90;;;;;;4956817;29;20227;-83
2022/11/29 07:50:30;;;;;;;35.20;15.60;;;4.50;99.90;;;;;;4958444;29;20256;-83
2022/11/29 07:52:56;;;;;;;34.70;16.80;;;4.50;99.90;;;;;;4958084;29;20607;-83
2022/11/29 07:55:24;;;;;;;32.63;16.10;;;4.50;99.90;;;;;;4958913;29;20183;-84
2022/11/29 07:57:50;;;;;;;31.97;16.90;;;4.60;99.90;;;;;;4958893;29;20174;-83
2022/11/29 08:00:18;;;;;;;29.73;15.27;;;4.60;99.90;;;;;;4959884;29;20230;-83
2022/11/29 08:02:45;;;;;;;32.47;15.50;;;4.60;99.90;;;;;;4956908;29;20661;-83
2022/11/29 08:05:11;;;;;;;30.23;15.17;;;4.70;99.90;;;;;;4939889;29;20175;-81
2022/11/29 08:07:38;;;;;;;35.17;16.30;;;4.70;99.90;;;;;;4959544;29;20191;-82
2022/11/29 08:10:13;;;;;;;31.87;16.23;;;4.70;99.90;;;;;;4964115;29;20200;-82
2022/11/29 08:12:48;;;;;;;33.17;16.07;;;4.70;99.90;;;;;;4943214;29;20170;-83
2022/11/29 08:15:15;;;;;;;29.80;16.17;;;4.70;99.90;;;;;;4957883;29;20173;-81
2022/11/29 08:17:41;;;;;;;32.97;17.30;;;4.70;99.90;;;;;;4955906;29;20168;-82
2022/11/29 08:20:09;;;;;;;30.47;16.63;;;4.70;99.90;;;;;;4956037;29;20195;-83
2022/11/29 08:22:35;;;;;;;37.27;17.77;;;4.70;99.90;;;;;;4940690;29;20185;-83
2022/11/29 08:25:01;;;;;;;33.27;17.00;;;4.60;99.90;;;;;;4963829;29;20258;-84
2022/11/29 08:27:27;;;;;;;31.30;16.87;;;4.70;99.90;;;;;;4963972;29;20180;-83
2022/11/29 08:29:53;;;;;;;31.17;15.87;;;4.70;99.90;;;;;;4955565;29;20654;-81
2022/11/29 08:32:19;;;;;;;32.70;16.73;;;4.80;99.90;;;;;;4955656;29;20179;-82
2022/11/29 08:34:45;;;;;;;35.43;15.57;;;4.80;99.90;;;;;;4955739;29;20636;-83
2022/11/29 08:37:11;;;;;;;33.40;16.20;;;4.80;99.90;;;;;;4943926;29;20184;-81
2022/11/29 08:39:36;;;;;;;28.93;15.57;;;4.80;99.90;;;;;;4956405;29;20223;-80
2022/11/29 08:42:02;;;;;;;28.70;14.77;;;4.80;99.90;;;;;;4955359;29;20555;-81
2022/11/29 08:44:28;;;;;;;30.10;15.20;;;4.90;99.90;;;;;;4957103;29;20260;-84
2022/11/29 08:49:59;;;;;;;30.23;17.60;;;5.00;99.90;;;;;;4959323;29;20546;-83
2022/11/29 08:55:09;;;;;;;32.20;16.30;;;5.10;99.90;;;;;;4955591;28;20546;-84
2022/11/29 08:57:35;;;;;;;33.43;16.80;;;5.10;99.90;;;;;;4937959;29;20564;-82
2022/11/29 09:00:01;;;;;;;33.20;16.90;;;5.20;99.90;;;;;;4955179;29;20235;-83
2022/11/29 09:02:27;;;;;;;32.63;16.33;;;5.30;99.90;;;;;;4957193;29;20171;-82
2022/11/29 09:04:53;;;;;;;29.03;14.93;;;5.30;99.90;;;;;;4955417;29;20182;-81
2022/11/29 09:07:20;;;;;;;29.23;15.77;;;5.40;99.90;;;;;;4955157;29;20176;-84
2022/11/29 09:09:47;;;;;;;33.70;16.93;;;5.50;99.90;;;;;;4954885;29;20186;-83
2022/11/29 09:12:13;;;;;;;37.43;17.73;;;5.50;99.90;;;;;;4937932;29;20238;-82
2022/11/29 09:14:39;;;;;;;32.50;17.30;;;5.50;99.90;;;;;;4955379;29;20649;-81
2022/11/29 09:17:04;;;;;;;31.23;17.40;;;5.50;99.90;;;;;;4955268;29;20175;-83
2022/11/29 09:19:30;;;;;;;32.10;16.37;;;5.50;99.90;;;;;;4954897;29;20176;-82
2022/11/29 09:21:56;;;;;;;30.60;16.50;;;5.50;99.90;;;;;;4955122;29;20250;-82
2022/11/29 09:24:22;;;;;;;29.27;15.40;;;5.50;99.90;;;;;;4955270;29;20186;-83
2022/11/29 09:26:48;;;;;;;29.23;16.77;;;5.50;99.90;;;;;;4955129;29;20503;-82
2022/11/29 09:29:16;;;;;;;31.57;16.13;;;5.50;99.90;;;;;;4955716;29;20582;-82
2022/11/29 09:31:45;;;;;;;33.73;16.07;;;5.60;99.90;;;;;;4954949;29;20667;-82
2022/11/29 09:34:15;;;;;;;33.80;16.07;;;5.60;99.90;;;;;;4955268;29;20180;-84
2022/11/29 09:36:45;;;;;;;31.47;16.90;;;5.70;99.90;;;;;;4937817;29;20187;-83
2022/11/29 09:39:13;;;;;;;35.03;17.27;;;5.70;99.90;;;;;;4955606;29;20189;-83
2022/11/29 09:42:18;;;;;;;34.67;17.57;;;5.70;99.90;;;;;;4955650;29;20288;-84
2022/11/29 09:45:07;;;;;;;30.47;15.63;;;5.70;99.90;;;;;;4955711;29;20180;-84
2022/11/29 09:47:44;;;;;;;31.23;16.23;;;5.80;99.90;;;;;;4956602;29;20165;-84
2022/11/29 09:50:22;;;;;;;31.77;17.07;;;5.80;99.90;;;;;;4956362;29;20258;-83
2022/11/29 09:53:18;;;;;;;31.47;17.50;;;5.70;99.90;;;;;;4946116;29;20604;-81
2022/11/29 09:55:55;;;;;;;31.20;16.47;;;5.70;99.90;;;;;;4963001;29;20704;-80
2022/11/29 09:58:31;;;;;;;33.10;16.40;;;5.70;99.90;;;;;;4939534;29;20175;-80
2022/11/29 10:01:02;;;;;;;31.37;16.17;;;5.80;99.90;;;;;;4917834;29;20319;-78
2022/11/29 10:03:39;;;;;;;33.20;16.37;;;5.80;99.90;;;;;;4922155;29;20170;-79
2022/11/29 10:06:37;;;;;;;36.30;17.40;;;5.80;99.90;;;;;;4923246;29;20170;-81
2022/11/29 10:09:25;;;;;;;30.93;16.67;;;5.80;99.90;;;;;;4925216;29;20159;-84
2022/11/29 10:12:06;;;;;;;33.03;17.77;;;5.90;99.90;;;;;;4931287;29;20227;-82
2022/11/29 10:15:00;;;;;;;30.60;16.17;;;5.90;99.90;;;;;;4922379;29;20176;-81
2022/11/29 10:17:38;;;;;;;30.30;16.37;;;6.00;99.90;;;;;;4911879;29;20221;-82
2022/11/29 10:20:21;;;;;;;30.67;15.77;;;6.10;99.90;;;;;;4919869;29;20210;-82
2022/11/29 10:22:59;;;;;;;32.20;17.27;;;6.10;99.90;;;;;;4919845;29;20622;-82
2022/11/29 10:25:36;;;;;;;32.77;16.70;;;6.10;99.90;;;;;;4919772;29;20565;-81
2022/11/29 10:28:05;;;;;;;30.90;15.73;;;6.10;99.90;;;;;;4919647;29;20233;-82
2022/11/29 10:30:33;;;;;;;30.27;17.00;;;6.20;99.90;;;;;;4922780;29;20256;-83
2022/11/29 10:32:59;;;;;;;33.13;17.30;;;6.20;99.90;;;;;;4921993;29;20172;-83
2022/11/29 10:35:26;;;;;;;32.13;16.97;;;6.20;99.90;;;;;;4919597;29;20536;-84
2022/11/29 10:37:57;;;;;;;35.70;17.37;;;6.10;99.90;;;;;;4919673;29;20174;-83
2022/11/29 10:40:33;;;;;;;29.50;16.23;;;6.10;99.90;;;;;;4920050;29;20259;-84
2022/11/29 10:43:00;;;;;;;28.37;15.50;;;6.00;99.90;;;;;;4920578;29;20230;-81
2022/11/29 10:45:28;;;;;;;35.00;17.17;;;5.90;99.90;;;;;;4919945;29;20184;-86
2022/11/29 10:48:03;;;;;;;31.47;16.97;;;5.90;99.90;;;;;;4919018;29;20709;-84
2022/11/29 10:50:34;;;;;;;27.17;16.30;;;6.00;99.90;;;;;;4919846;29;20213;-83
2022/11/29 10:53:09;;;;;;;29.30;16.20;;;5.90;99.90;;;;;;4919748;29;20248;-83
2022/11/29 10:55:59;;;;;;;27.20;15.60;;;5.90;99.90;;;;;;4919477;29;20164;-81
2022/11/29 10:58:29;;;;;;;28.43;16.10;;;5.80;99.90;;;;;;4919445;29;20266;-84
2022/11/29 11:01:05;;;;;;;32.20;15.70;;;5.80;99.90;;;;;;4952338;29;20246;-82
2022/11/29 11:03:34;;;;;;;28.13;15.07;;;5.70;99.90;;;;;;4957698;29;20165;-82
2022/11/29 11:06:00;;;;;;;28.10;15.53;;;5.70;99.90;;;;;;4957249;29;20539;-84
2022/11/29 11:08:27;;;;;;;26.43;14.33;;;5.80;99.90;;;;;;4957299;29;20183;-82
2022/11/29 11:10:54;;;;;;;28.73;16.50;;;5.80;99.90;;;;;;4957064;29;20208;-83
2022/11/29 11:13:23;;;;;;;30.60;16.13;;;5.70;99.90;;;;;;4957366;29;20169;-82
2022/11/29 11:15:56;;;;;;;27.73;15.40;;;5.70;99.90;;;;;;4956992;29;20182;-81
2022/11/29 11:18:27;;;;;;;30.63;16.20;;;5.60;99.90;;;;;;4957537;28;20174;-81
2022/11/29 11:20:57;;;;;;;32.37;16.90;;;5.60;99.90;;;;;;4945916;29;20183;-82
2022/11/29 11:23:32;;;;;;;31.13;16.77;;;5.60;99.90;;;;;;4957342;29;20267;-83
2022/11/29 11:26:00;;;;;;;27.77;15.87;;;5.70;99.90;;;;;;4957400;29;20190;-82
2022/11/29 11:28:29;;;;;;;35.90;16.50;;;5.80;99.90;;;;;;4958105;29;20248;-80
2022/11/29 11:30:57;;;;;;;31.73;16.07;;;5.90;99.90;;;;;;4969617;29;20206;-80
2022/11/29 11:33:30;;;;;;;29.13;15.60;;;5.90;99.90;;;;;;4958880;29;20172;-83
2022/11/29 11:36:18;;;;;;;27.90;15.67;;;5.90;99.90;;;;;;4958355;29;20178;-81
2022/11/29 11:38:56;;;;;;;29.63;14.90;;;5.80;99.90;;;;;;4964428;29;20170;-83
2022/11/29 11:42:35;;;;;;;26.13;14.47;;;5.60;99.90;;;;;;4957525;29;20169;-83
2022/11/29 11:44:23;;;;;;;28.27;15.33;;;5.40;99.90;;;;;;4963234;29;20173;-87
2022/11/29 11:46:50;;;;;;;29.10;15.27;;;5.50;99.90;;;;;;4958204;29;20230;-84
2022/11/29 11:49:30;;;;;;;32.00;15.20;;;5.60;99.90;;;;;;4941654;29;20641;-81
2022/11/29 11:51:58;;;;;;;25.70;15.33;;;5.70;99.90;;;;;;4960856;29;20222;-83
2022/11/29 11:54:25;;;;;;;28.97;15.83;;;5.70;99.90;;;;;;4960354;29;20519;-83
2022/11/29 11:56:51;;;;;;;27.67;15.13;;;5.80;99.90;;;;;;4957959;29;20175;-81
2022/11/29 11:59:25;;;;;;;30.83;15.13;;;5.90;99.90;;;;;;4956255;29;20613;-83
2022/11/29 12:01:51;;;;;;;27.20;15.20;;;5.90;99.90;;;;;;4956561;29;20167;-82
2022/11/29 12:04:33;;;;;;;24.47;14.07;;;5.90;99.90;;;;;;4956398;29;20180;-84
2022/11/29 12:07:01;;;;;;;23.93;14.50;;;5.90;99.90;;;;;;4956172;29;20625;-84
2022/11/29 12:09:43;;;;;;;25.93;13.57;;;5.90;99.90;;;;;;4956125;29;20168;-82
2022/11/29 12:12:27;;;;;;;25.13;14.50;;;5.80;99.90;;;;;;4958663;29;20199;-82
2022/11/29 12:15:13;;;;;;;25.27;14.60;;;5.80;99.90;;;;;;4959287;29;20164;-83
2022/11/29 12:17:56;;;;;;;27.43;14.60;;;5.80;99.90;;;;;;4956594;29;20199;-84
2022/11/29 12:20:35;;;;;;;27.77;14.40;;;5.80;99.90;;;;;;4956063;29;20208;-83
2022/11/29 12:23:10;;;;;;;31.03;15.57;;;5.80;99.90;;;;;;4956153;29;20167;-82
2022/11/29 12:25:57;;;;;;;28.40;16.10;;;5.70;99.90;;;;;;4955941;29;20230;-84
2022/11/29 12:28:36;;;;;;;25.80;16.13;;;5.60;99.90;;;;;;4955946;29;20181;-83
2022/11/29 12:31:20;;;;;;;28.40;14.90;;;5.50;99.90;;;;;;4956513;28;20206;-83
2022/11/29 12:34:24;;;;;;;29.17;16.97;;;5.40;99.90;;;;;;4957022;29;20222;-82
2022/11/29 12:37:11;;;;;;;30.13;16.23;;;5.20;99.90;;;;;;4956806;29;20519;-82
2022/11/29 12:39:49;;;;;;;28.93;15.97;;;5.20;99.90;;;;;;4958297;29;20172;-82
2022/11/29 12:42:44;;;;;;;31.33;16.20;;;5.20;99.90;;;;;;4957473;29;20250;-82
2022/11/29 12:45:33;;;;;;;25.20;14.57;;;5.20;99.90;;;;;;4922081;29;20729;-80
2022/11/29 12:48:14;;;;;;;26.50;14.33;;;5.10;99.90;;;;;;4963355;29;20160;-83
2022/11/29 12:50:55;;;;;;;26.03;14.57;;;5.10;99.90;;;;;;4957096;29;20200;-82
2022/11/29 12:53:42;;;;;;;26.47;14.97;;;5.10;99.90;;;;;;4959042;29;20169;-82
2022/11/29 12:56:39;;;;;;;28.30;14.37;;;5.20;99.90;;;;;;4961992;29;20207;-83
2022/11/29 12:59:24;;;;;;;25.13;14.47;;;5.30;99.90;;;;;;4943014;29;20183;-83
2022/11/29 13:02:09;;;;;;;26.03;15.00;;;5.20;99.90;;;;;;4956885;29;20264;-81
2022/11/29 13:04:47;;;;;;;23.27;14.33;;;5.30;99.90;;;;;;4955756;29;20161;-84
2022/11/29 13:07:19;;;;;;;25.23;14.50;;;5.30;99.90;;;;;;4955798;29;20171;-82
2022/11/29 13:10:15;;;;;;;25.83;14.87;;;5.30;99.90;;;;;;4955661;29;20245;-81
2022/11/29 13:12:45;;;;;;;24.17;15.60;;;5.30;99.90;;;;;;4956678;29;20159;-82
2022/11/29 13:15:20;;;;;;;24.80;14.77;;;5.30;99.90;;;;;;4956618;29;20172;-81
2022/11/29 13:18:08;;;;;;;26.87;15.17;;;5.40;99.90;;;;;;4940346;29;20207;-82
2022/11/29 13:20:39;;;;;;;26.07;15.17;;;5.50;99.90;;;;;;4964885;29;20176;-84
2022/11/29 13:23:20;;;;;;;24.67;15.00;;;5.60;99.90;;;;;;4948068;29;20184;-82
2022/11/29 13:25:53;;;;;;;26.10;15.10;;;5.70;99.90;;;;;;4960175;29;20186;-81
2022/11/29 13:28:29;;;;;;;23.60;14.03;;;5.80;99.90;;;;;;4957383;29;20161;-82
2022/11/29 13:31:15;;;;;;;23.73;14.70;;;5.80;99.90;;;;;;4955765;29;20217;-84
2022/11/29 13:33:56;;;;;;;23.43;13.93;;;5.80;99.90;;;;;;4938161;29;20182;-82